createdAt,value
2018-06-19T00:01:33.771Z,15.40
2018-06-19T00:04:02.209Z,15.30
2018-06-19T00:06:30.629Z,15.40
2018-06-19T00:08:59.311Z,15.30
2018-06-19T00:11:27.805Z,15.30
2018-06-19T00:13:56.361Z,15.30
2018-06-19T00:16:24.845Z,15.30
2018-06-19T00:18:55.893Z,15.30
2018-06-19T00:21:31.667Z,15.20
2018-06-19T00:24:00.149Z,15.20
2018-06-19T00:26:28.631Z,15.20
2018-06-19T00:28:57.280Z,15.20
2018-06-19T00:31:25.810Z,15.20
2018-06-19T00:33:54.252Z,15.20
2018-06-19T00:36:22.754Z,15.20
2018-06-19T00:38:51.664Z,15.20
2018-06-19T00:41:20.213Z,15.10
2018-06-19T00:43:48.718Z,15.10
2018-06-19T00:46:18.700Z,15.10
2018-06-19T00:48:47.116Z,15.10
2018-06-19T00:51:15.658Z,15.10
2018-06-19T00:53:44.087Z,15.00
2018-06-19T00:56:23.636Z,15.00
2018-06-19T00:58:52.110Z,15.00
2018-06-19T01:01:20.673Z,15.00
2018-06-19T01:03:49.101Z,15.00
2018-06-19T01:06:17.540Z,15.00
2018-06-19T01:08:46.002Z,15.00
2018-06-19T01:11:14.434Z,14.90
2018-06-19T01:13:42.890Z,14.90
2018-06-19T01:16:11.322Z,14.80
2018-06-19T01:18:39.786Z,14.80
2018-06-19T01:21:08.312Z,14.80
2018-06-19T01:23:36.748Z,14.80
2018-06-19T01:26:05.172Z,14.80
2018-06-19T01:28:33.699Z,14.80
2018-06-19T01:31:02.186Z,14.80
2018-06-19T01:33:30.644Z,14.80
2018-06-19T01:35:59.118Z,14.70
2018-06-19T01:38:27.554Z,14.80
2018-06-19T01:40:55.974Z,14.70
2018-06-19T01:43:24.534Z,14.70
2018-06-19T01:45:52.977Z,14.60
2018-06-19T01:48:21.398Z,14.70
2018-06-19T01:50:49.885Z,14.70
2018-06-19T01:53:18.383Z,14.70
2018-06-19T01:55:46.817Z,14.70
2018-06-19T01:58:15.242Z,14.60
2018-06-19T02:00:43.700Z,14.60
2018-06-19T02:03:12.132Z,14.60
2018-06-19T02:05:40.594Z,14.60
2018-06-19T02:08:09.014Z,14.60
2018-06-19T02:10:37.456Z,14.60
2018-06-19T02:13:06.273Z,14.60
2018-06-19T02:15:34.710Z,14.60
2018-06-19T02:18:03.218Z,14.60
2018-06-19T02:20:31.783Z,14.60
2018-06-19T02:25:28.350Z,14.70
2018-06-19T02:27:56.919Z,14.70
2018-06-19T02:30:25.366Z,14.80
2018-06-19T02:32:53.814Z,14.80
2018-06-19T02:35:22.364Z,14.80
2018-06-19T02:37:51.470Z,14.90
2018-06-19T02:42:48.221Z,14.90
2018-06-19T02:45:16.683Z,14.90
2018-06-19T02:47:45.106Z,14.90
2018-06-19T02:50:13.615Z,15.00
2018-06-19T02:52:42.121Z,15.00
2018-06-19T02:55:10.558Z,15.00
2018-06-19T02:57:39.033Z,15.00
2018-06-19T03:00:07.616Z,15.10
2018-06-19T03:02:36.105Z,15.10
2018-06-19T03:05:05.067Z,15.10
2018-06-19T03:07:33.541Z,15.20
2018-06-19T03:10:01.962Z,15.20
2018-06-19T03:12:30.405Z,15.30
2018-06-19T03:14:58.886Z,15.30
2018-06-19T03:19:55.899Z,15.30
2018-06-19T03:22:24.462Z,15.30
2018-06-19T03:24:53.103Z,15.40
2018-06-19T03:27:21.579Z,15.40
2018-06-19T03:29:50.056Z,15.40
2018-06-19T03:32:18.591Z,15.40
2018-06-19T03:34:47.033Z,15.50
2018-06-19T03:37:15.476Z,15.50
2018-06-19T03:39:43.927Z,15.60
2018-06-19T03:42:12.379Z,15.60
2018-06-19T03:44:40.894Z,15.60
2018-06-19T03:47:09.317Z,15.60
2018-06-19T03:49:37.844Z,15.60
2018-06-19T03:52:06.305Z,15.60
2018-06-19T03:54:34.792Z,15.70
2018-06-19T03:57:03.298Z,15.80
2018-06-19T03:59:31.856Z,15.80
2018-06-19T04:02:00.288Z,15.80
2018-06-19T04:04:28.730Z,15.80
2018-06-19T04:06:57.170Z,15.80
2018-06-19T04:09:25.745Z,15.90
2018-06-19T04:11:54.281Z,15.90
2018-06-19T04:14:22.785Z,15.90
2018-06-19T04:16:51.216Z,16.00
2018-06-19T04:19:19.768Z,16.00
2018-06-19T04:21:48.210Z,16.00
2018-06-19T04:24:16.658Z,16.10
2018-06-19T04:26:45.316Z,16.10
2018-06-19T04:29:13.772Z,16.10
2018-06-19T04:31:42.368Z,16.10
2018-06-19T04:34:10.838Z,16.20
2018-06-19T04:36:39.391Z,16.20
2018-06-19T04:39:10.076Z,16.30
2018-06-19T04:41:38.512Z,16.30
2018-06-19T04:44:07.006Z,16.30
2018-06-19T04:46:35.711Z,16.30
2018-06-19T04:49:04.172Z,16.40
2018-06-19T04:51:32.644Z,16.40
2018-06-19T04:54:01.080Z,16.50
2018-06-19T04:56:29.662Z,16.50
2018-06-19T04:58:58.140Z,16.60
2018-06-19T05:01:26.690Z,16.50
2018-06-19T05:03:56.197Z,16.60
2018-06-19T05:06:24.786Z,16.60
2018-06-19T05:08:53.258Z,16.70
2018-06-19T05:11:21.687Z,16.70
2018-06-19T05:13:50.110Z,16.70
2018-06-19T05:16:18.556Z,16.80
2018-06-19T05:18:47.099Z,16.80
2018-06-19T05:21:16.102Z,16.80
2018-06-19T05:23:44.534Z,16.80
2018-06-19T05:26:13.064Z,16.80
2018-06-19T05:28:41.504Z,16.90
2018-06-19T05:31:09.951Z,16.90
2018-06-19T05:33:38.402Z,17.00
2018-06-19T05:36:06.850Z,17.00
2018-06-19T05:38:35.309Z,17.00
2018-06-19T05:41:03.802Z,17.00
2018-06-19T05:43:32.320Z,17.00
2018-06-19T05:48:28.961Z,17.10
2018-06-19T05:50:57.410Z,17.10
2018-06-19T05:53:25.921Z,17.20
2018-06-19T05:55:54.368Z,17.20
2018-06-19T05:58:22.813Z,17.20
2018-06-19T06:00:51.263Z,17.20
2018-06-19T06:03:19.713Z,17.30
2018-06-19T06:05:48.295Z,17.30
2018-06-19T06:08:16.660Z,17.30
2018-06-19T06:10:45.090Z,17.40
2018-06-19T06:13:13.527Z,17.40
2018-06-19T06:15:42.296Z,17.40
2018-06-19T06:18:10.765Z,17.50
2018-06-19T06:20:39.177Z,17.60
2018-06-19T06:23:07.654Z,17.60
2018-06-19T06:25:36.111Z,17.60
2018-06-19T06:28:04.792Z,17.60
2018-06-19T06:30:33.262Z,17.70
2018-06-19T06:33:01.861Z,17.70
2018-06-19T06:35:30.316Z,17.80
2018-06-19T06:37:58.779Z,17.80
2018-06-19T06:40:27.215Z,17.90
2018-06-19T06:42:55.655Z,17.90
2018-06-19T06:45:24.104Z,17.90
2018-06-19T06:47:52.572Z,17.90
2018-06-19T06:50:21.044Z,17.90
2018-06-19T06:52:49.498Z,17.90
2018-06-19T06:55:17.993Z,18.00
2018-06-19T06:57:46.448Z,18.00
2018-06-19T07:00:15.006Z,18.00
2018-06-19T07:02:43.443Z,18.00
2018-06-19T07:05:11.974Z,18.10
2018-06-19T07:07:40.467Z,18.10
2018-06-19T07:10:08.936Z,18.20
2018-06-19T07:12:37.407Z,18.20
2018-06-19T07:15:05.854Z,18.20
2018-06-19T07:17:34.637Z,18.20
2018-06-19T07:20:03.245Z,18.20
2018-06-19T07:22:31.714Z,18.30
2018-06-19T07:25:00.297Z,18.30
2018-06-19T07:27:28.851Z,18.40
2018-06-19T07:29:57.293Z,18.30
2018-06-19T07:32:25.937Z,18.30
2018-06-19T07:34:54.380Z,18.30
2018-06-19T07:37:22.855Z,18.30
2018-06-19T07:39:51.441Z,18.40
2018-06-19T07:42:19.995Z,18.40
2018-06-19T07:44:48.431Z,18.40
2018-06-19T07:47:16.909Z,18.40
2018-06-19T07:49:45.376Z,18.50
2018-06-19T07:52:13.831Z,18.50
2018-06-19T07:54:42.305Z,18.50
2018-06-19T07:57:10.769Z,18.50
2018-06-19T07:59:39.256Z,18.50
2018-06-19T08:02:07.809Z,18.60
2018-06-19T08:04:36.272Z,18.60
2018-06-19T08:07:10.106Z,18.70
2018-06-19T08:09:39.637Z,18.70
2018-06-19T08:12:08.609Z,18.70
2018-06-19T08:14:37.546Z,18.70
2018-06-19T08:17:06.001Z,18.70
2018-06-19T08:19:34.550Z,18.70
2018-06-19T08:22:03.063Z,18.70
2018-06-19T08:24:31.780Z,18.70
2018-06-19T08:27:00.269Z,18.70
2018-06-19T08:29:28.734Z,18.70
2018-06-19T08:31:57.285Z,18.60
2018-06-19T08:34:25.798Z,18.60
2018-06-19T08:36:54.389Z,18.50
2018-06-19T08:39:22.914Z,18.50
2018-06-19T08:41:51.508Z,18.40
2018-06-19T08:44:19.970Z,18.40
2018-06-19T08:46:48.536Z,18.30
2018-06-19T08:49:17.042Z,18.30
2018-06-19T08:51:45.630Z,18.50
2018-06-19T08:54:14.101Z,18.50
2018-06-19T08:56:42.564Z,18.60
2018-06-19T08:59:11.142Z,18.60
2018-06-19T09:01:39.620Z,18.60
2018-06-19T09:04:08.166Z,18.70
2018-06-19T09:06:36.752Z,18.60
2018-06-19T09:09:07.880Z,18.60
2018-06-19T09:11:36.330Z,18.60
2018-06-19T09:14:04.858Z,18.60
2018-06-19T09:16:33.346Z,18.60
2018-06-19T09:19:01.958Z,18.60
2018-06-19T09:21:30.417Z,18.70
2018-06-19T09:23:58.900Z,18.80
2018-06-19T09:26:27.396Z,18.80
2018-06-19T09:28:55.946Z,18.90
2018-06-19T09:31:24.404Z,18.90
2018-06-19T09:33:53.256Z,18.90
2018-06-19T09:36:21.882Z,18.90
2018-06-19T09:38:50.489Z,19.00
2018-06-19T09:41:19.050Z,19.10
2018-06-19T09:43:47.665Z,19.30
2018-06-19T09:46:16.268Z,19.40
2018-06-19T09:48:44.765Z,19.70
2018-06-19T09:51:13.225Z,20.00
2018-06-19T09:53:41.809Z,20.20
2018-06-19T09:56:10.356Z,20.30
2018-06-19T09:58:38.871Z,20.30
2018-06-19T10:01:07.351Z,20.30
2018-06-19T10:03:36.204Z,20.30
2018-06-19T10:06:04.717Z,20.30
2018-06-19T10:08:33.169Z,20.10
2018-06-19T10:11:01.692Z,20.20
2018-06-19T10:13:30.139Z,20.40
2018-06-19T10:15:58.594Z,20.80
2018-06-19T10:18:27.101Z,20.90
2018-06-19T10:20:55.925Z,21.10
2018-06-19T10:23:24.403Z,21.20
2018-06-19T10:25:52.907Z,21.30
2018-06-19T10:28:21.450Z,21.20
2018-06-19T10:30:49.950Z,21.00
2018-06-19T10:33:18.469Z,20.90
2018-06-19T10:35:46.941Z,20.90
2018-06-19T10:38:15.450Z,21.00
2018-06-19T10:40:43.930Z,21.20
2018-06-19T10:43:12.386Z,21.40
2018-06-19T10:45:40.974Z,21.50
2018-06-19T10:48:09.546Z,21.60
2018-06-19T10:50:38.012Z,21.50
2018-06-19T10:55:34.899Z,20.80
2018-06-19T10:58:03.458Z,20.60
2018-06-19T11:00:31.932Z,20.60
2018-06-19T11:03:00.444Z,20.70
2018-06-19T11:05:29.026Z,20.80
2018-06-19T11:07:57.591Z,20.90
2018-06-19T11:10:26.084Z,21.00
2018-06-19T11:12:54.565Z,21.10
2018-06-19T11:15:23.041Z,21.20
2018-06-19T11:17:51.653Z,21.40
2018-06-19T11:20:20.108Z,21.60
2018-06-19T11:22:48.557Z,21.60
2018-06-19T11:25:17.006Z,21.60
2018-06-19T11:27:45.456Z,21.50
2018-06-19T11:30:14.027Z,21.40
2018-06-19T11:32:42.522Z,21.40
2018-06-19T11:35:11.066Z,21.30
2018-06-19T11:37:39.583Z,21.00
2018-06-19T11:40:08.146Z,20.70
2018-06-19T11:42:36.594Z,20.50
2018-06-19T11:45:05.140Z,20.50
2018-06-19T11:47:33.668Z,20.50
2018-06-19T11:50:02.159Z,20.50
2018-06-19T11:52:30.678Z,20.70
2018-06-19T11:54:59.232Z,20.90
2018-06-19T11:57:28.059Z,21.10
2018-06-19T11:59:56.865Z,21.40
2018-06-19T12:02:25.426Z,21.60
2018-06-19T12:04:53.877Z,21.70
2018-06-19T12:07:22.449Z,21.70
2018-06-19T12:09:50.991Z,21.60
2018-06-19T12:12:19.432Z,21.60
2018-06-19T12:17:16.549Z,21.50
2018-06-19T12:19:45.514Z,21.40
2018-06-19T12:22:14.094Z,21.30
2018-06-19T12:24:42.708Z,21.30
2018-06-19T12:27:11.156Z,21.30
2018-06-19T12:29:39.644Z,21.30
2018-06-19T12:32:08.111Z,21.40
2018-06-19T12:34:36.732Z,21.60
2018-06-19T12:37:05.276Z,21.70
2018-06-19T12:42:01.928Z,21.90
2018-06-19T12:44:30.561Z,22.00
2018-06-19T12:46:59.077Z,22.00
2018-06-19T12:50:39.014Z,22.10
2018-06-19T12:53:19.685Z,22.00
2018-06-19T12:56:00.242Z,22.20
2018-06-19T12:58:28.743Z,22.20
2018-06-19T13:00:57.202Z,22.20
2018-06-19T13:03:36.877Z,22.30
2018-06-19T13:06:16.679Z,22.40
2018-06-19T13:08:45.138Z,22.40
2018-06-19T13:11:13.737Z,22.50
2018-06-19T13:16:27.320Z,22.50
2018-06-19T13:19:07.150Z,22.80
2018-06-19T13:21:35.764Z,22.80
2018-06-19T13:24:04.390Z,22.70
2018-06-19T13:26:32.900Z,22.40
2018-06-19T13:29:38.857Z,22.20
2018-06-19T13:32:07.397Z,22.10
2018-06-19T13:34:36.693Z,22.20
2018-06-19T13:37:05.651Z,22.30
2018-06-19T13:39:34.756Z,22.30
2018-06-19T13:42:15.432Z,22.40
2018-06-19T13:44:54.165Z,22.70
2018-06-19T13:47:22.660Z,22.80
2018-06-19T13:49:51.281Z,22.80
2018-06-19T13:52:19.665Z,22.90
2018-06-19T13:54:48.258Z,22.90
2018-06-19T13:57:34.372Z,23.00
2018-06-19T14:00:05.705Z,22.80
2018-06-19T14:02:34.236Z,22.70
2018-06-19T14:05:03.382Z,22.70
2018-06-19T14:07:33.241Z,22.50
2018-06-19T14:12:51.256Z,22.30
2018-06-19T14:15:20.658Z,22.10
2018-06-19T14:17:49.213Z,22.20
2018-06-19T14:20:17.701Z,22.30
2018-06-19T14:22:46.270Z,22.30
2018-06-19T14:25:15.090Z,22.50
2018-06-19T14:27:43.678Z,22.80
2018-06-19T14:30:12.308Z,23.20
2018-06-19T14:32:40.786Z,23.30
2018-06-19T14:35:09.535Z,23.40
2018-06-19T14:37:38.047Z,23.70
2018-06-19T14:40:06.682Z,23.70
2018-06-19T14:42:35.429Z,23.60
2018-06-19T14:45:04.278Z,23.60
2018-06-19T14:47:32.720Z,23.60
2018-06-19T14:50:01.179Z,23.40
2018-06-19T14:52:29.633Z,23.50
2018-06-19T14:54:58.082Z,23.60
2018-06-19T14:57:26.543Z,23.40
2018-06-19T14:59:55.028Z,23.30
2018-06-19T15:02:23.588Z,23.20
2018-06-19T15:04:52.164Z,23.10
2018-06-19T15:07:20.635Z,23.10
2018-06-19T15:09:49.113Z,22.90
2018-06-19T15:12:17.580Z,22.90
2018-06-19T15:14:46.059Z,22.80
2018-06-19T15:19:42.752Z,23.10
2018-06-19T15:22:11.246Z,22.90
2018-06-19T15:24:39.682Z,22.80
2018-06-19T15:27:08.183Z,22.70
2018-06-19T15:29:36.786Z,22.70
2018-06-19T15:32:05.232Z,22.60
2018-06-19T15:34:40.006Z,22.50
2018-06-19T15:37:08.452Z,22.30
2018-06-19T15:39:36.909Z,22.20
2018-06-19T15:42:06.069Z,22.20
2018-06-19T15:44:34.634Z,22.20
2018-06-19T15:47:03.338Z,22.30
2018-06-19T15:49:31.866Z,22.30
2018-06-19T15:52:00.307Z,22.30
2018-06-19T15:54:28.864Z,22.40
2018-06-19T15:56:57.428Z,22.50
2018-06-19T15:59:25.976Z,22.50
2018-06-19T16:01:54.953Z,22.50
2018-06-19T16:04:23.407Z,22.60
2018-06-19T16:06:51.950Z,22.60
2018-06-19T16:09:20.421Z,22.60
2018-06-19T16:11:48.874Z,22.60
2018-06-19T16:14:17.382Z,22.50
2018-06-19T16:16:45.844Z,22.40
2018-06-19T16:19:14.427Z,22.20
2018-06-19T16:21:42.984Z,22.20
2018-06-19T16:24:11.576Z,22.00
2018-06-19T16:26:40.078Z,21.90
2018-06-19T16:29:08.525Z,21.80
2018-06-19T16:31:36.999Z,21.70
2018-06-19T16:34:05.496Z,21.50
2018-06-19T16:36:33.953Z,21.50
2018-06-19T16:39:02.449Z,21.60
2018-06-19T16:41:31.012Z,21.60
2018-06-19T16:46:27.715Z,21.70
2018-06-19T16:48:56.155Z,21.70
2018-06-19T16:51:24.590Z,21.70
2018-06-19T16:53:53.026Z,21.70
2018-06-19T16:56:21.481Z,21.70
2018-06-19T16:58:50.115Z,21.70
2018-06-19T17:01:18.592Z,21.80
2018-06-19T17:03:47.249Z,21.80
2018-06-19T17:06:15.871Z,21.80
2018-06-19T17:08:44.343Z,21.90
2018-06-19T17:11:12.777Z,22.00
2018-06-19T17:13:41.235Z,22.00
2018-06-19T17:16:09.801Z,21.90
2018-06-19T17:18:38.249Z,21.90
2018-06-19T17:21:06.737Z,21.80
2018-06-19T17:23:35.283Z,21.70
2018-06-19T17:28:32.081Z,21.80
2018-06-19T17:31:00.635Z,21.80
2018-06-19T17:33:29.243Z,21.70
2018-06-19T17:35:57.691Z,21.60
2018-06-19T17:38:26.169Z,21.60
2018-06-19T17:40:54.635Z,21.50
2018-06-19T17:43:23.146Z,21.50
2018-06-19T17:45:51.720Z,21.50
2018-06-19T17:48:20.179Z,21.40
2018-06-19T17:50:48.692Z,21.40
2018-06-19T17:53:17.151Z,21.30
2018-06-19T17:55:45.626Z,21.20
2018-06-19T17:58:14.193Z,21.20
2018-06-19T18:00:42.897Z,21.20
2018-06-19T18:03:14.592Z,21.20
2018-06-19T18:08:11.625Z,21.20
2018-06-19T18:10:40.243Z,21.20
2018-06-19T18:13:08.853Z,21.30
2018-06-19T18:15:37.500Z,21.30
2018-06-19T18:20:34.152Z,21.30
2018-06-19T18:23:02.673Z,21.30
2018-06-19T18:25:31.264Z,21.30
2018-06-19T18:27:59.842Z,21.30
2018-06-19T18:30:28.311Z,21.30
2018-06-19T18:32:56.811Z,21.30
2018-06-19T18:35:25.525Z,21.30
2018-06-19T18:37:54.021Z,21.30
2018-06-19T18:40:22.739Z,21.30
2018-06-19T18:42:51.304Z,21.30
2018-06-19T18:45:19.762Z,21.30
2018-06-19T18:47:48.393Z,21.40
2018-06-19T18:50:16.836Z,21.40
2018-06-19T18:52:45.460Z,21.40
2018-06-19T18:57:42.269Z,21.40
2018-06-19T19:00:10.823Z,21.40
2018-06-19T19:02:39.272Z,21.30
2018-06-19T19:05:07.822Z,21.30
2018-06-19T19:07:36.490Z,21.30
2018-06-19T19:10:10.254Z,21.30
2018-06-19T19:12:38.771Z,21.30
2018-06-19T19:17:46.359Z,21.20
2018-06-19T19:22:43.222Z,21.20
2018-06-19T19:27:45.263Z,21.10
2018-06-19T19:30:13.880Z,21.10
2018-06-19T19:35:10.500Z,21.10
2018-06-19T19:37:44.365Z,21.10
2018-06-19T19:40:12.941Z,21.10
2018-06-19T19:42:41.403Z,21.10
2018-06-19T19:45:09.856Z,21.00
2018-06-19T19:47:43.657Z,21.00
2018-06-19T19:50:12.116Z,21.00
2018-06-19T19:52:40.605Z,21.00
2018-06-19T19:55:09.129Z,21.00
2018-06-19T19:57:42.958Z,20.90
2018-06-19T20:00:15.717Z,20.90
2018-06-19T20:02:44.197Z,20.80
2018-06-19T20:05:12.631Z,20.70
2018-06-19T20:07:41.751Z,20.50
2018-06-19T20:10:10.257Z,20.50
2018-06-19T20:12:38.702Z,20.40
2018-06-19T20:15:07.165Z,20.40
2018-06-19T20:17:35.635Z,20.30
2018-06-19T20:20:05.375Z,20.30
2018-06-19T20:22:33.953Z,20.30
2018-06-19T20:27:30.558Z,20.20
2018-06-19T20:29:59.066Z,20.20
2018-06-19T20:34:56.001Z,20.20
2018-06-19T20:37:24.477Z,20.20
2018-06-19T20:39:52.947Z,20.20
2018-06-19T20:42:21.451Z,20.20
2018-06-19T20:44:50.078Z,20.20
2018-06-19T20:47:18.505Z,20.10
2018-06-19T20:49:47.036Z,20.10
2018-06-19T20:52:15.503Z,20.00
2018-06-19T20:54:43.977Z,20.00
2018-06-19T20:57:12.525Z,19.90
2018-06-19T20:59:40.981Z,19.90
2018-06-19T21:02:09.467Z,19.90
2018-06-19T21:04:38.022Z,19.90
2018-06-19T21:07:06.649Z,20.00
2018-06-19T21:09:35.139Z,20.00
2018-06-19T21:12:03.588Z,19.90
2018-06-19T21:14:32.306Z,19.90
2018-06-19T21:17:00.805Z,19.90
2018-06-19T21:19:29.652Z,19.90
2018-06-19T21:21:58.101Z,19.90
2018-06-19T21:24:26.603Z,19.90
2018-06-19T21:26:55.085Z,19.90
2018-06-19T21:29:23.605Z,19.80
2018-06-19T21:31:52.125Z,19.80
2018-06-19T21:34:20.564Z,19.80
2018-06-19T21:36:49.032Z,19.80
2018-06-19T21:39:17.610Z,19.80
2018-06-19T21:41:46.033Z,19.80
2018-06-19T21:44:14.609Z,19.80
2018-06-19T21:46:43.064Z,19.80
2018-06-19T21:49:11.660Z,19.80
2018-06-19T21:51:40.129Z,19.80
2018-06-19T21:54:08.582Z,19.70
2018-06-19T21:56:37.022Z,19.70
2018-06-19T21:59:05.484Z,19.70
2018-06-19T22:01:33.926Z,19.60
2018-06-19T22:06:30.702Z,19.60
2018-06-19T22:08:59.300Z,19.60
2018-06-19T22:11:27.778Z,19.60
2018-06-19T22:13:56.260Z,19.70
2018-06-19T22:16:24.712Z,19.60
2018-06-19T22:18:53.217Z,19.60
2018-06-19T22:21:21.682Z,19.60
2018-06-19T22:23:50.192Z,19.60
2018-06-19T22:26:18.640Z,19.60
2018-06-19T22:28:47.073Z,19.60
2018-06-19T22:31:15.533Z,19.60
2018-06-19T22:33:43.966Z,19.60
2018-06-19T22:36:12.461Z,19.60
2018-06-19T22:38:40.922Z,19.60
2018-06-19T22:41:09.390Z,19.60
2018-06-19T22:43:37.891Z,19.60
2018-06-19T22:46:06.349Z,19.50
2018-06-19T22:48:34.873Z,19.50
2018-06-19T22:51:03.337Z,19.60
2018-06-19T22:53:31.766Z,19.60
2018-06-19T22:56:00.335Z,19.50
2018-06-19T22:58:28.809Z,19.50
2018-06-19T23:00:57.417Z,19.50
2018-06-19T23:03:25.859Z,19.50
2018-06-19T23:05:54.313Z,19.50
2018-06-19T23:08:23.171Z,19.50
2018-06-19T23:10:51.599Z,19.50
2018-06-19T23:13:20.067Z,19.50
2018-06-19T23:15:48.581Z,19.50
2018-06-19T23:18:17.033Z,19.50
2018-06-19T23:20:45.481Z,19.50
2018-06-19T23:23:13.937Z,19.50
2018-06-19T23:28:10.589Z,19.50
2018-06-19T23:30:39.036Z,19.40
2018-06-19T23:33:07.567Z,19.40
2018-06-19T23:35:36.014Z,19.40
2018-06-19T23:38:04.512Z,19.40
2018-06-19T23:40:32.973Z,19.40
2018-06-19T23:43:01.425Z,19.40
2018-06-19T23:45:29.953Z,19.40
2018-06-19T23:47:58.410Z,19.40
2018-06-19T23:50:26.934Z,19.30
2018-06-19T23:52:55.381Z,19.30
2018-06-19T23:55:23.815Z,19.30
2018-06-19T23:57:52.270Z,19.30
